Oak Lodge, Oregon
Current Conditions -  °F | °C
As of 12:53 AM on Monday 24 Nov 2014 (Local Time) from KPDX Reporting Station
Haze Haze  
Wind Chill: 48°   Ceiling: 1200
Heat Index: 48°   Visibility: 6mi
Dew Point: 48°   Wind: 0mph
Humidity: 100%   Direction: NA
Pressure: 30.38"   Gusts: NA
Location:  45.4079°N, 122.613°W
Report Text: KPDX 240853Z 00000KT 6SM BR OVC012 09/09 A3038 RMK AO2 SLP286 T00890089 50006
Loading
Personal Weather Stations






























Interactive Weather Map New forecast layout! Learn more

10-Day Weather Forecast

Advertisements
Track Severe Weather on mobile